sensor_id;sensor_type;location;lat;lon;timestamp;P1;durP1;ratioP1;P2;durP2;ratioP2
61036;SDS011;57313;47.040;15.498;2022-08-02T00:01:45;9.25;;;4.30;;
61036;SDS011;57313;47.040;15.498;2022-08-02T00:04:13;15.30;;;3.90;;
61036;SDS011;57313;47.040;15.498;2022-08-02T00:06:40;8.50;;;4.10;;
61036;SDS011;57313;47.040;15.498;2022-08-02T00:09:14;9.73;;;3.92;;
61036;SDS011;57313;47.040;15.498;2022-08-02T00:11:43;9.20;;;4.22;;
61036;SDS011;57313;47.040;15.498;2022-08-02T00:14:10;8.75;;;4.45;;
61036;SDS011;57313;47.040;15.498;2022-08-02T00:16:37;10.98;;;4.78;;
61036;SDS011;57313;47.040;15.498;2022-08-02T00:19:06;9.70;;;4.20;;
61036;SDS011;57313;47.040;15.498;2022-08-02T00:21:33;11.80;;;4.00;;
61036;SDS011;57313;47.040;15.498;2022-08-02T00:24:02;9.18;;;4.40;;
61036;SDS011;57313;47.040;15.498;2022-08-02T00:26:52;8.05;;;4.18;;
61036;SDS011;57313;47.040;15.498;2022-08-02T00:29:20;15.80;;;4.95;;
61036;SDS011;57313;47.040;15.498;2022-08-02T00:31:48;9.55;;;4.40;;
61036;SDS011;57313;47.040;15.498;2022-08-02T00:34:16;10.65;;;4.60;;
61036;SDS011;57313;47.040;15.498;2022-08-02T00:36:56;10.48;;;4.60;;
61036;SDS011;57313;47.040;15.498;2022-08-02T00:39:23;9.13;;;4.32;;
61036;SDS011;57313;47.040;15.498;2022-08-02T00:42:02;9.52;;;4.38;;
61036;SDS011;57313;47.040;15.498;2022-08-02T00:44:33;11.02;;;4.97;;
61036;SDS011;57313;47.040;15.498;2022-08-02T00:47:01;10.15;;;4.30;;
61036;SDS011;57313;47.040;15.498;2022-08-02T00:49:31;14.27;;;4.60;;
61036;SDS011;57313;47.040;15.498;2022-08-02T00:52:00;11.40;;;4.82;;
61036;SDS011;57313;47.040;15.498;2022-08-02T00:54:27;10.20;;;4.47;;
61036;SDS011;57313;47.040;15.498;2022-08-02T00:56:55;10.88;;;4.07;;
61036;SDS011;57313;47.040;15.498;2022-08-02T00:59:24;9.25;;;3.85;;
61036;SDS011;57313;47.040;15.498;2022-08-02T01:01:53;9.38;;;4.20;;
61036;SDS011;57313;47.040;15.498;2022-08-02T01:04:24;10.35;;;4.45;;
61036;SDS011;57313;47.040;15.498;2022-08-02T01:06:57;11.82;;;4.65;;
61036;SDS011;57313;47.040;15.498;2022-08-02T01:09:25;9.25;;;4.20;;
61036;SDS011;57313;47.040;15.498;2022-08-02T01:11:53;10.23;;;3.88;;
61036;SDS011;57313;47.040;15.498;2022-08-02T01:14:21;10.45;;;4.18;;
61036;SDS011;57313;47.040;15.498;2022-08-02T01:16:53;8.55;;;3.92;;
61036;SDS011;57313;47.040;15.498;2022-08-02T01:19:35;7.80;;;3.70;;
61036;SDS011;57313;47.040;15.498;2022-08-02T01:22:15;17.40;;;4.22;;
61036;SDS011;57313;47.040;15.498;2022-08-02T01:25:24;10.25;;;3.83;;
61036;SDS011;57313;47.040;15.498;2022-08-02T01:28:16;10.02;;;3.95;;
61036;SDS011;57313;47.040;15.498;2022-08-02T01:31:01;8.73;;;3.85;;
61036;SDS011;57313;47.040;15.498;2022-08-02T01:33:34;8.32;;;3.42;;
61036;SDS011;57313;47.040;15.498;2022-08-02T01:36:12;7.22;;;3.35;;
61036;SDS011;57313;47.040;15.498;2022-08-02T01:38:43;18.27;;;4.30;;
61036;SDS011;57313;47.040;15.498;2022-08-02T01:41:15;8.93;;;3.70;;
61036;SDS011;57313;47.040;15.498;2022-08-02T01:43:50;10.10;;;3.90;;
61036;SDS011;57313;47.040;15.498;2022-08-02T01:46:20;10.70;;;3.60;;
61036;SDS011;57313;47.040;15.498;2022-08-02T01:48:48;10.45;;;3.50;;
61036;SDS011;57313;47.040;15.498;2022-08-02T01:51:17;7.55;;;3.10;;
61036;SDS011;57313;47.040;15.498;2022-08-02T01:53:47;7.03;;;2.88;;
61036;SDS011;57313;47.040;15.498;2022-08-02T01:56:17;8.40;;;2.90;;
61036;SDS011;57313;47.040;15.498;2022-08-02T01:58:51;8.13;;;3.10;;
61036;SDS011;57313;47.040;15.498;2022-08-02T02:01:20;7.55;;;3.03;;
61036;SDS011;57313;47.040;15.498;2022-08-02T02:03:48;8.25;;;3.15;;
61036;SDS011;57313;47.040;15.498;2022-08-02T02:06:17;12.85;;;3.50;;
61036;SDS011;57313;47.040;15.498;2022-08-02T02:08:47;7.43;;;3.35;;
61036;SDS011;57313;47.040;15.498;2022-08-02T02:11:20;7.47;;;3.28;;
61036;SDS011;57313;47.040;15.498;2022-08-02T02:14:10;10.38;;;3.80;;
61036;SDS011;57313;47.040;15.498;2022-08-02T02:16:40;8.57;;;3.58;;
61036;SDS011;57313;47.040;15.498;2022-08-02T02:19:10;10.02;;;3.58;;
61036;SDS011;57313;47.040;15.498;2022-08-02T02:21:46;7.60;;;3.17;;
61036;SDS011;57313;47.040;15.498;2022-08-02T02:24:15;7.57;;;3.38;;
61036;SDS011;57313;47.040;15.498;2022-08-02T02:26:44;7.20;;;3.13;;
61036;SDS011;57313;47.040;15.498;2022-08-02T02:29:21;9.05;;;3.10;;
61036;SDS011;57313;47.040;15.498;2022-08-02T02:31:54;7.18;;;3.40;;
61036;SDS011;57313;47.040;15.498;2022-08-02T02:34:28;9.60;;;3.97;;
61036;SDS011;57313;47.040;15.498;2022-08-02T02:37:00;7.82;;;3.28;;
61036;SDS011;57313;47.040;15.498;2022-08-02T02:39:36;9.25;;;3.30;;
61036;SDS011;57313;47.040;15.498;2022-08-02T02:42:07;8.13;;;3.20;;
61036;SDS011;57313;47.040;15.498;2022-08-02T02:44:42;6.85;;;3.15;;
61036;SDS011;57313;47.040;15.498;2022-08-02T02:47:13;7.07;;;3.25;;
61036;SDS011;57313;47.040;15.498;2022-08-02T02:49:42;6.75;;;3.00;;
61036;SDS011;57313;47.040;15.498;2022-08-02T02:52:12;10.55;;;3.38;;
61036;SDS011;57313;47.040;15.498;2022-08-02T02:54:44;8.80;;;3.33;;
61036;SDS011;57313;47.040;15.498;2022-08-02T02:57:14;8.32;;;3.40;;
61036;SDS011;57313;47.040;15.498;2022-08-02T02:59:47;7.88;;;3.63;;
61036;SDS011;57313;47.040;15.498;2022-08-02T03:02:16;6.55;;;2.75;;
61036;SDS011;57313;47.040;15.498;2022-08-02T03:04:45;9.90;;;3.33;;
61036;SDS011;57313;47.040;15.498;2022-08-02T03:07:23;8.00;;;3.35;;
61036;SDS011;57313;47.040;15.498;2022-08-02T03:09:52;8.30;;;3.13;;
61036;SDS011;57313;47.040;15.498;2022-08-02T03:12:21;8.57;;;3.60;;
61036;SDS011;57313;47.040;15.498;2022-08-02T03:14:59;10.25;;;3.42;;
61036;SDS011;57313;47.040;15.498;2022-08-02T03:17:38;7.25;;;3.17;;
61036;SDS011;57313;47.040;15.498;2022-08-02T03:20:11;7.90;;;3.13;;
61036;SDS011;57313;47.040;15.498;2022-08-02T03:22:40;8.63;;;3.50;;
61036;SDS011;57313;47.040;15.498;2022-08-02T03:25:09;8.80;;;3.28;;
61036;SDS011;57313;47.040;15.498;2022-08-02T03:27:37;11.13;;;3.33;;
61036;SDS011;57313;47.040;15.498;2022-08-02T03:30:15;7.85;;;3.00;;
61036;SDS011;57313;47.040;15.498;2022-08-02T03:32:43;7.20;;;3.17;;
61036;SDS011;57313;47.040;15.498;2022-08-02T03:35:14;9.32;;;3.25;;
61036;SDS011;57313;47.040;15.498;2022-08-02T03:37:50;7.15;;;3.25;;
61036;SDS011;57313;47.040;15.498;2022-08-02T03:40:19;9.07;;;3.40;;
61036;SDS011;57313;47.040;15.498;2022-08-02T03:42:47;7.15;;;3.08;;
61036;SDS011;57313;47.040;15.498;2022-08-02T03:45:18;13.27;;;3.65;;
61036;SDS011;57313;47.040;15.498;2022-08-02T03:47:46;8.93;;;3.28;;
61036;SDS011;57313;47.040;15.498;2022-08-02T03:50:13;7.53;;;3.40;;
61036;SDS011;57313;47.040;15.498;2022-08-02T03:52:41;8.68;;;3.30;;
61036;SDS011;57313;47.040;15.498;2022-08-02T03:55:11;7.60;;;3.20;;
61036;SDS011;57313;47.040;15.498;2022-08-02T03:57:39;7.10;;;3.15;;
61036;SDS011;57313;47.040;15.498;2022-08-02T04:00:11;7.47;;;3.70;;
61036;SDS011;57313;47.040;15.498;2022-08-02T04:02:45;8.98;;;3.70;;
61036;SDS011;57313;47.040;15.498;2022-08-02T04:05:13;9.52;;;4.05;;
61036;SDS011;57313;47.040;15.498;2022-08-02T04:07:41;9.77;;;4.15;;
61036;SDS011;57313;47.040;15.498;2022-08-02T04:10:28;13.40;;;4.72;;
61036;SDS011;57313;47.040;15.498;2022-08-02T04:12:56;12.10;;;5.22;;
61036;SDS011;57313;47.040;15.498;2022-08-02T04:15:24;12.55;;;5.05;;
61036;SDS011;57313;47.040;15.498;2022-08-02T04:17:55;9.73;;;4.38;;
61036;SDS011;57313;47.040;15.498;2022-08-02T04:20:27;8.60;;;4.25;;
61036;SDS011;57313;47.040;15.498;2022-08-02T04:22:59;8.80;;;4.30;;
61036;SDS011;57313;47.040;15.498;2022-08-02T04:25:30;8.50;;;3.45;;
61036;SDS011;57313;47.040;15.498;2022-08-02T04:28:06;10.73;;;4.30;;
61036;SDS011;57313;47.040;15.498;2022-08-02T04:30:43;9.88;;;4.30;;
61036;SDS011;57313;47.040;15.498;2022-08-02T04:33:15;10.35;;;4.00;;
61036;SDS011;57313;47.040;15.498;2022-08-02T04:35:45;8.35;;;3.80;;
61036;SDS011;57313;47.040;15.498;2022-08-02T04:38:13;8.25;;;3.92;;
61036;SDS011;57313;47.040;15.498;2022-08-02T04:40:49;10.15;;;3.97;;
61036;SDS011;57313;47.040;15.498;2022-08-02T04:43:17;10.10;;;4.57;;
61036;SDS011;57313;47.040;15.498;2022-08-02T04:45:45;8.82;;;4.07;;
61036;SDS011;57313;47.040;15.498;2022-08-02T04:48:21;11.23;;;4.32;;
61036;SDS011;57313;47.040;15.498;2022-08-02T04:50:52;9.15;;;4.35;;
61036;SDS011;57313;47.040;15.498;2022-08-02T04:53:20;10.77;;;4.85;;
61036;SDS011;57313;47.040;15.498;2022-08-02T04:55:47;9.32;;;4.15;;
61036;SDS011;57313;47.040;15.498;2022-08-02T04:58:15;10.07;;;4.30;;
61036;SDS011;57313;47.040;15.498;2022-08-02T05:01:03;11.75;;;3.97;;
61036;SDS011;57313;47.040;15.498;2022-08-02T05:03:34;10.48;;;3.95;;
61036;SDS011;57313;47.040;15.498;2022-08-02T05:06:02;8.95;;;4.03;;
61036;SDS011;57313;47.040;15.498;2022-08-02T05:08:44;9.50;;;4.07;;
61036;SDS011;57313;47.040;15.498;2022-08-02T05:11:18;10.95;;;4.70;;
61036;SDS011;57313;47.040;15.498;2022-08-02T05:14:01;12.82;;;4.20;;
61036;SDS011;57313;47.040;15.498;2022-08-02T05:16:29;10.27;;;4.55;;
61036;SDS011;57313;47.040;15.498;2022-08-02T05:18:59;9.63;;;4.18;;
61036;SDS011;57313;47.040;15.498;2022-08-02T05:21:28;9.18;;;3.70;;
61036;SDS011;57313;47.040;15.498;2022-08-02T05:23:56;9.13;;;4.28;;
61036;SDS011;57313;47.040;15.498;2022-08-02T05:26:24;11.25;;;5.22;;
61036;SDS011;57313;47.040;15.498;2022-08-02T05:28:51;10.35;;;4.05;;
61036;SDS011;57313;47.040;15.498;2022-08-02T05:31:19;11.07;;;4.03;;
61036;SDS011;57313;47.040;15.498;2022-08-02T05:33:47;12.60;;;4.25;;
61036;SDS011;57313;47.040;15.498;2022-08-02T05:36:18;12.98;;;4.68;;
61036;SDS011;57313;47.040;15.498;2022-08-02T05:38:47;9.07;;;4.10;;
61036;SDS011;57313;47.040;15.498;2022-08-02T05:41:15;10.25;;;4.40;;
61036;SDS011;57313;47.040;15.498;2022-08-02T05:43:43;8.68;;;4.00;;
61036;SDS011;57313;47.040;15.498;2022-08-02T05:46:10;10.95;;;4.03;;
61036;SDS011;57313;47.040;15.498;2022-08-02T05:48:38;10.43;;;4.97;;
61036;SDS011;57313;47.040;15.498;2022-08-02T05:51:09;10.68;;;4.03;;
61036;SDS011;57313;47.040;15.498;2022-08-02T05:53:44;10.63;;;3.85;;
61036;SDS011;57313;47.040;15.498;2022-08-02T05:56:20;11.80;;;4.20;;
61036;SDS011;57313;47.040;15.498;2022-08-02T05:58:52;10.45;;;4.15;;
61036;SDS011;57313;47.040;15.498;2022-08-02T06:01:32;9.52;;;3.95;;
61036;SDS011;57313;47.040;15.498;2022-08-02T06:04:04;12.52;;;3.88;;
61036;SDS011;57313;47.040;15.498;2022-08-02T06:06:33;9.38;;;3.92;;
61036;SDS011;57313;47.040;15.498;2022-08-02T06:09:07;14.30;;;4.22;;
61036;SDS011;57313;47.040;15.498;2022-08-02T06:11:41;13.05;;;4.43;;
61036;SDS011;57313;47.040;15.498;2022-08-02T06:14:31;10.30;;;3.55;;
61036;SDS011;57313;47.040;15.498;2022-08-02T06:17:01;12.02;;;4.15;;
61036;SDS011;57313;47.040;15.498;2022-08-02T06:19:31;9.20;;;4.15;;
61036;SDS011;57313;47.040;15.498;2022-08-02T06:22:18;11.25;;;3.90;;
61036;SDS011;57313;47.040;15.498;2022-08-02T06:25:05;10.73;;;4.93;;
61036;SDS011;57313;47.040;15.498;2022-08-02T06:27:54;9.48;;;3.33;;
61036;SDS011;57313;47.040;15.498;2022-08-02T06:30:23;10.23;;;4.15;;
61036;SDS011;57313;47.040;15.498;2022-08-02T06:32:52;13.35;;;4.07;;
61036;SDS011;57313;47.040;15.498;2022-08-02T06:35:20;10.15;;;4.03;;
61036;SDS011;57313;47.040;15.498;2022-08-02T06:37:50;13.20;;;3.88;;
61036;SDS011;57313;47.040;15.498;2022-08-02T06:40:28;8.77;;;3.53;;
61036;SDS011;57313;47.040;15.498;2022-08-02T06:43:10;10.15;;;3.72;;
61036;SDS011;57313;47.040;15.498;2022-08-02T06:45:43;10.82;;;3.88;;
61036;SDS011;57313;47.040;15.498;2022-08-02T06:48:11;9.32;;;3.85;;
61036;SDS011;57313;47.040;15.498;2022-08-02T06:50:39;11.45;;;3.90;;
61036;SDS011;57313;47.040;15.498;2022-08-02T06:53:10;9.88;;;3.75;;
61036;SDS011;57313;47.040;15.498;2022-08-02T06:55:41;13.13;;;3.97;;
61036;SDS011;57313;47.040;15.498;2022-08-02T06:58:10;9.38;;;4.00;;
61036;SDS011;57313;47.040;15.498;2022-08-02T07:00:38;11.65;;;4.00;;
61036;SDS011;57313;47.040;15.498;2022-08-02T07:03:06;11.93;;;3.50;;
61036;SDS011;57313;47.040;15.498;2022-08-02T07:05:35;10.05;;;3.42;;
61036;SDS011;57313;47.040;15.498;2022-08-02T07:08:03;8.20;;;3.38;;
61036;SDS011;57313;47.040;15.498;2022-08-02T07:10:31;7.40;;;2.97;;
61036;SDS011;57313;47.040;15.498;2022-08-02T07:13:05;10.60;;;3.70;;
61036;SDS011;57313;47.040;15.498;2022-08-02T07:15:42;8.48;;;3.55;;
61036;SDS011;57313;47.040;15.498;2022-08-02T07:18:15;8.13;;;3.30;;
61036;SDS011;57313;47.040;15.498;2022-08-02T07:20:42;10.35;;;3.60;;
61036;SDS011;57313;47.040;15.498;2022-08-02T07:23:10;10.82;;;3.92;;
61036;SDS011;57313;47.040;15.498;2022-08-02T07:25:39;10.32;;;3.55;;
61036;SDS011;57313;47.040;15.498;2022-08-02T07:28:28;9.18;;;3.25;;
61036;SDS011;57313;47.040;15.498;2022-08-02T07:30:56;9.02;;;3.30;;
61036;SDS011;57313;47.040;15.498;2022-08-02T07:33:23;9.10;;;3.03;;
61036;SDS011;57313;47.040;15.498;2022-08-02T07:36:05;7.07;;;3.05;;
61036;SDS011;57313;47.040;15.498;2022-08-02T07:38:35;7.93;;;2.85;;
61036;SDS011;57313;47.040;15.498;2022-08-02T07:41:03;8.98;;;3.00;;
61036;SDS011;57313;47.040;15.498;2022-08-02T07:43:33;7.05;;;2.72;;
61036;SDS011;57313;47.040;15.498;2022-08-02T07:46:01;8.77;;;3.05;;
61036;SDS011;57313;47.040;15.498;2022-08-02T07:48:29;9.82;;;2.75;;
61036;SDS011;57313;47.040;15.498;2022-08-02T07:50:57;6.72;;;2.83;;
61036;SDS011;57313;47.040;15.498;2022-08-02T07:53:25;7.32;;;2.30;;
61036;SDS011;57313;47.040;15.498;2022-08-02T07:56:13;6.38;;;2.45;;
61036;SDS011;57313;47.040;15.498;2022-08-02T07:58:43;9.45;;;2.67;;
61036;SDS011;57313;47.040;15.498;2022-08-02T08:01:11;7.07;;;2.38;;
61036;SDS011;57313;47.040;15.498;2022-08-02T08:03:39;7.13;;;2.50;;
61036;SDS011;57313;47.040;15.498;2022-08-02T08:06:06;7.00;;;2.38;;
61036;SDS011;57313;47.040;15.498;2022-08-02T08:08:36;9.25;;;2.67;;
61036;SDS011;57313;47.040;15.498;2022-08-02T08:11:04;6.25;;;2.38;;
61036;SDS011;57313;47.040;15.498;2022-08-02T08:13:32;6.47;;;2.40;;
61036;SDS011;57313;47.040;15.498;2022-08-02T08:16:03;7.85;;;2.50;;
61036;SDS011;57313;47.040;15.498;2022-08-02T08:18:40;7.13;;;2.47;;
61036;SDS011;57313;47.040;15.498;2022-08-02T08:21:09;7.13;;;2.40;;
61036;SDS011;57313;47.040;15.498;2022-08-02T08:23:38;6.75;;;2.53;;
61036;SDS011;57313;47.040;15.498;2022-08-02T08:26:05;7.38;;;2.47;;
61036;SDS011;57313;47.040;15.498;2022-08-02T08:28:33;10.45;;;2.33;;
61036;SDS011;57313;47.040;15.498;2022-08-02T08:31:03;7.22;;;2.53;;
61036;SDS011;57313;47.040;15.498;2022-08-02T08:33:32;7.07;;;2.55;;
61036;SDS011;57313;47.040;15.498;2022-08-02T08:36:00;8.90;;;2.80;;
61036;SDS011;57313;47.040;15.498;2022-08-02T08:38:28;7.03;;;2.40;;
61036;SDS011;57313;47.040;15.498;2022-08-02T08:40:55;7.97;;;2.65;;
61036;SDS011;57313;47.040;15.498;2022-08-02T08:43:23;8.95;;;2.65;;
61036;SDS011;57313;47.040;15.498;2022-08-02T08:45:50;9.57;;;2.72;;
61036;SDS011;57313;47.040;15.498;2022-08-02T08:48:24;8.07;;;2.50;;
61036;SDS011;57313;47.040;15.498;2022-08-02T08:50:59;6.45;;;2.58;;
61036;SDS011;57313;47.040;15.498;2022-08-02T08:53:36;8.80;;;2.47;;
61036;SDS011;57313;47.040;15.498;2022-08-02T08:56:08;7.45;;;2.42;;
61036;SDS011;57313;47.040;15.498;2022-08-02T08:58:42;8.55;;;2.55;;
61036;SDS011;57313;47.040;15.498;2022-08-02T09:01:11;6.90;;;2.50;;
61036;SDS011;57313;47.040;15.498;2022-08-02T09:03:42;7.00;;;2.65;;
61036;SDS011;57313;47.040;15.498;2022-08-02T09:06:12;6.00;;;2.40;;
61036;SDS011;57313;47.040;15.498;2022-08-02T09:08:40;7.07;;;2.30;;
61036;SDS011;57313;47.040;15.498;2022-08-02T09:11:11;6.38;;;2.50;;
61036;SDS011;57313;47.040;15.498;2022-08-02T09:13:47;7.57;;;2.30;;
61036;SDS011;57313;47.040;15.498;2022-08-02T09:16:27;6.47;;;2.50;;
61036;SDS011;57313;47.040;15.498;2022-08-02T09:18:59;9.38;;;2.95;;
61036;SDS011;57313;47.040;15.498;2022-08-02T09:21:34;5.80;;;2.20;;
61036;SDS011;57313;47.040;15.498;2022-08-02T09:24:14;6.28;;;2.60;;
61036;SDS011;57313;47.040;15.498;2022-08-02T09:26:45;7.60;;;2.28;;
61036;SDS011;57313;47.040;15.498;2022-08-02T09:29:15;6.10;;;2.20;;
61036;SDS011;57313;47.040;15.498;2022-08-02T09:31:47;7.72;;;2.33;;
61036;SDS011;57313;47.040;15.498;2022-08-02T09:34:17;5.13;;;1.80;;
61036;SDS011;57313;47.040;15.498;2022-08-02T09:36:45;5.95;;;2.15;;
61036;SDS011;57313;47.040;15.498;2022-08-02T09:39:20;5.75;;;2.35;;
61036;SDS011;57313;47.040;15.498;2022-08-02T09:41:47;5.97;;;2.30;;
61036;SDS011;57313;47.040;15.498;2022-08-02T09:44:15;5.57;;;2.00;;
61036;SDS011;57313;47.040;15.498;2022-08-02T09:46:43;6.38;;;2.30;;
61036;SDS011;57313;47.040;15.498;2022-08-02T09:49:14;6.38;;;2.17;;
61036;SDS011;57313;47.040;15.498;2022-08-02T09:51:49;6.80;;;2.20;;
61036;SDS011;57313;47.040;15.498;2022-08-02T09:54:18;6.10;;;2.10;;
61036;SDS011;57313;47.040;15.498;2022-08-02T09:56:52;6.47;;;2.23;;
61036;SDS011;57313;47.040;15.498;2022-08-02T09:59:23;10.27;;;2.53;;
61036;SDS011;57313;47.040;15.498;2022-08-02T10:01:52;6.80;;;2.28;;
61036;SDS011;57313;47.040;15.498;2022-08-02T10:04:28;6.00;;;2.30;;
61036;SDS011;57313;47.040;15.498;2022-08-02T10:07:00;5.43;;;2.13;;
61036;SDS011;57313;47.040;15.498;2022-08-02T10:09:28;6.65;;;2.25;;
61036;SDS011;57313;47.040;15.498;2022-08-02T10:11:56;7.72;;;2.63;;
61036;SDS011;57313;47.040;15.498;2022-08-02T10:14:30;6.57;;;2.10;;
61036;SDS011;57313;47.040;15.498;2022-08-02T10:16:59;6.78;;;2.30;;
61036;SDS011;57313;47.040;15.498;2022-08-02T10:19:26;6.55;;;2.20;;
61036;SDS011;57313;47.040;15.498;2022-08-02T10:22:15;7.90;;;2.10;;
61036;SDS011;57313;47.040;15.498;2022-08-02T10:24:45;6.18;;;2.13;;
61036;SDS011;57313;47.040;15.498;2022-08-02T10:27:15;6.82;;;2.30;;
61036;SDS011;57313;47.040;15.498;2022-08-02T10:29:45;6.72;;;2.22;;
61036;SDS011;57313;47.040;15.498;2022-08-02T10:32:23;7.35;;;2.67;;
61036;SDS011;57313;47.040;15.498;2022-08-02T10:34:56;6.60;;;2.30;;
61036;SDS011;57313;47.040;15.498;2022-08-02T10:37:48;6.05;;;2.38;;
61036;SDS011;57313;47.040;15.498;2022-08-02T10:40:19;6.68;;;2.15;;
61036;SDS011;57313;47.040;15.498;2022-08-02T10:42:48;5.97;;;2.08;;
61036;SDS011;57313;47.040;15.498;2022-08-02T10:45:17;6.80;;;2.08;;
61036;SDS011;57313;47.040;15.498;2022-08-02T10:47:59;5.63;;;2.10;;
61036;SDS011;57313;47.040;15.498;2022-08-02T10:53:25;6.53;;;2.33;;
61036;SDS011;57313;47.040;15.498;2022-08-02T10:56:09;8.73;;;2.38;;
61036;SDS011;57313;47.040;15.498;2022-08-02T10:58:36;7.68;;;2.33;;
61036;SDS011;57313;47.040;15.498;2022-08-02T11:04:05;7.18;;;2.45;;
61036;SDS011;57313;47.040;15.498;2022-08-02T11:06:38;8.15;;;2.40;;
61036;SDS011;57313;47.040;15.498;2022-08-02T11:09:40;6.97;;;2.33;;
61036;SDS011;57313;47.040;15.498;2022-08-02T11:12:12;6.75;;;2.28;;
61036;SDS011;57313;47.040;15.498;2022-08-02T11:15:05;6.30;;;2.10;;
61036;SDS011;57313;47.040;15.498;2022-08-02T11:17:50;8.05;;;2.70;;
61036;SDS011;57313;47.040;15.498;2022-08-02T11:20:18;6.18;;;2.60;;
61036;SDS011;57313;47.040;15.498;2022-08-02T11:22:46;7.93;;;2.70;;
61036;SDS011;57313;47.040;15.498;2022-08-02T11:25:33;8.48;;;2.90;;
61036;SDS011;57313;47.040;15.498;2022-08-02T11:28:20;10.23;;;2.80;;
61036;SDS011;57313;47.040;15.498;2022-08-02T11:30:57;7.22;;;2.60;;
61036;SDS011;57313;47.040;15.498;2022-08-02T11:33:29;7.03;;;2.40;;
61036;SDS011;57313;47.040;15.498;2022-08-02T11:36:02;9.90;;;2.45;;
61036;SDS011;57313;47.040;15.498;2022-08-02T11:38:31;7.75;;;2.13;;
61036;SDS011;57313;47.040;15.498;2022-08-02T11:41:03;6.43;;;2.00;;
61036;SDS011;57313;47.040;15.498;2022-08-02T11:43:35;7.40;;;1.80;;
61036;SDS011;57313;47.040;15.498;2022-08-02T11:46:03;5.60;;;1.55;;
61036;SDS011;57313;47.040;15.498;2022-08-02T11:48:39;6.03;;;1.88;;
61036;SDS011;57313;47.040;15.498;2022-08-02T11:51:10;6.82;;;2.15;;
61036;SDS011;57313;47.040;15.498;2022-08-02T11:53:40;7.15;;;2.17;;
61036;SDS011;57313;47.040;15.498;2022-08-02T11:56:10;6.35;;;2.00;;
61036;SDS011;57313;47.040;15.498;2022-08-02T11:58:38;8.15;;;2.03;;
61036;SDS011;57313;47.040;15.498;2022-08-02T12:01:07;7.20;;;1.90;;
61036;SDS011;57313;47.040;15.498;2022-08-02T12:03:35;5.32;;;1.98;;
61036;SDS011;57313;47.040;15.498;2022-08-02T12:06:04;6.70;;;1.85;;
61036;SDS011;57313;47.040;15.498;2022-08-02T12:08:42;5.93;;;2.30;;
61036;SDS011;57313;47.040;15.498;2022-08-02T12:11:23;5.93;;;2.03;;
61036;SDS011;57313;47.040;15.498;2022-08-02T12:14:05;5.35;;;1.90;;
61036;SDS011;57313;47.040;15.498;2022-08-02T12:16:33;7.35;;;2.30;;
61036;SDS011;57313;47.040;15.498;2022-08-02T12:19:04;6.10;;;2.25;;
61036;SDS011;57313;47.040;15.498;2022-08-02T12:21:32;5.32;;;2.10;;
61036;SDS011;57313;47.040;15.498;2022-08-02T12:24:01;6.72;;;2.22;;
61036;SDS011;57313;47.040;15.498;2022-08-02T12:26:39;9.65;;;2.67;;
61036;SDS011;57313;47.040;15.498;2022-08-02T12:29:09;14.45;;;2.35;;
61036;SDS011;57313;47.040;15.498;2022-08-02T12:31:43;6.00;;;2.15;;
61036;SDS011;57313;47.040;15.498;2022-08-02T12:34:23;6.78;;;2.30;;
61036;SDS011;57313;47.040;15.498;2022-08-02T12:36:59;6.75;;;2.40;;
61036;SDS011;57313;47.040;15.498;2022-08-02T12:39:32;6.50;;;2.38;;
61036;SDS011;57313;47.040;15.498;2022-08-02T12:42:05;7.15;;;2.47;;
61036;SDS011;57313;47.040;15.498;2022-08-02T12:44:34;7.38;;;2.50;;
61036;SDS011;57313;47.040;15.498;2022-08-02T12:47:04;5.40;;;1.88;;
61036;SDS011;57313;47.040;15.498;2022-08-02T12:49:34;6.05;;;2.13;;
61036;SDS011;57313;47.040;15.498;2022-08-02T12:52:17;7.38;;;2.65;;
61036;SDS011;57313;47.040;15.498;2022-08-02T12:54:47;5.75;;;2.15;;
61036;SDS011;57313;47.040;15.498;2022-08-02T12:57:21;7.80;;;2.42;;
61036;SDS011;57313;47.040;15.498;2022-08-02T12:59:49;6.90;;;2.60;;
61036;SDS011;57313;47.040;15.498;2022-08-02T13:02:18;6.82;;;2.40;;
61036;SDS011;57313;47.040;15.498;2022-08-02T13:08:29;7.15;;;2.35;;
61036;SDS011;57313;47.040;15.498;2022-08-02T13:10:56;7.43;;;2.72;;
61036;SDS011;57313;47.040;15.498;2022-08-02T13:13:25;6.75;;;2.78;;
61036;SDS011;57313;47.040;15.498;2022-08-02T13:15:56;8.95;;;3.10;;
61036;SDS011;57313;47.040;15.498;2022-08-02T13:18:24;9.05;;;2.85;;
61036;SDS011;57313;47.040;15.498;2022-08-02T13:20:55;9.18;;;2.58;;
61036;SDS011;57313;47.040;15.498;2022-08-02T13:23:26;7.03;;;3.08;;
61036;SDS011;57313;47.040;15.498;2022-08-02T13:26:13;7.88;;;2.97;;
61036;SDS011;57313;47.040;15.498;2022-08-02T13:28:41;10.75;;;3.20;;
61036;SDS011;57313;47.040;15.498;2022-08-02T13:31:08;8.95;;;2.67;;
61036;SDS011;57313;47.040;15.498;2022-08-02T13:33:56;9.02;;;3.38;;
61036;SDS011;57313;47.040;15.498;2022-08-02T13:36:24;6.95;;;2.70;;
61036;SDS011;57313;47.040;15.498;2022-08-02T13:38:51;8.63;;;2.90;;
61036;SDS011;57313;47.040;15.498;2022-08-02T13:41:19;7.05;;;2.78;;
61036;SDS011;57313;47.040;15.498;2022-08-02T13:43:48;6.28;;;2.53;;
61036;SDS011;57313;47.040;15.498;2022-08-02T13:46:20;6.80;;;2.40;;
61036;SDS011;57313;47.040;15.498;2022-08-02T13:48:54;9.20;;;2.92;;
61036;SDS011;57313;47.040;15.498;2022-08-02T13:51:22;7.63;;;2.67;;
61036;SDS011;57313;47.040;15.498;2022-08-02T13:53:50;6.70;;;2.50;;
61036;SDS011;57313;47.040;15.498;2022-08-02T13:56:18;6.90;;;2.90;;
61036;SDS011;57313;47.040;15.498;2022-08-02T13:59:03;7.18;;;2.90;;
61036;SDS011;57313;47.040;15.498;2022-08-02T14:01:54;6.20;;;2.33;;
61036;SDS011;57313;47.040;15.498;2022-08-02T14:04:26;6.70;;;2.40;;
61036;SDS011;57313;47.040;15.498;2022-08-02T14:06:54;6.50;;;2.40;;
61036;SDS011;57313;47.040;15.498;2022-08-02T14:09:24;6.75;;;2.70;;
61036;SDS011;57313;47.040;15.498;2022-08-02T14:11:52;7.30;;;2.72;;
61036;SDS011;57313;47.040;15.498;2022-08-02T14:14:23;6.30;;;2.17;;
61036;SDS011;57313;47.040;15.498;2022-08-02T14:16:51;9.85;;;2.60;;
61036;SDS011;57313;47.040;15.498;2022-08-02T14:19:22;6.10;;;2.20;;
61036;SDS011;57313;47.040;15.498;2022-08-02T14:21:50;7.03;;;2.30;;
61036;SDS011;57313;47.040;15.498;2022-08-02T14:24:21;6.22;;;2.10;;
61036;SDS011;57313;47.040;15.498;2022-08-02T14:26:50;5.85;;;2.15;;
61036;SDS011;57313;47.040;15.498;2022-08-02T14:29:18;7.60;;;2.40;;
61036;SDS011;57313;47.040;15.498;2022-08-02T14:31:50;8.43;;;2.50;;
61036;SDS011;57313;47.040;15.498;2022-08-02T14:34:17;9.57;;;3.20;;
61036;SDS011;57313;47.040;15.498;2022-08-02T14:36:45;5.88;;;2.33;;
61036;SDS011;57313;47.040;15.498;2022-08-02T14:39:21;7.25;;;2.20;;
61036;SDS011;57313;47.040;15.498;2022-08-02T14:41:48;6.20;;;2.35;;
61036;SDS011;57313;47.040;15.498;2022-08-02T14:44:26;9.40;;;2.20;;
61036;SDS011;57313;47.040;15.498;2022-08-02T14:46:55;5.97;;;2.30;;
61036;SDS011;57313;47.040;15.498;2022-08-02T14:49:23;7.47;;;2.33;;
61036;SDS011;57313;47.040;15.498;2022-08-02T14:51:52;5.85;;;2.20;;
61036;SDS011;57313;47.040;15.498;2022-08-02T14:54:21;6.45;;;2.40;;
61036;SDS011;57313;47.040;15.498;2022-08-02T14:56:56;7.00;;;2.50;;
61036;SDS011;57313;47.040;15.498;2022-08-02T14:59:29;5.80;;;2.30;;
61036;SDS011;57313;47.040;15.498;2022-08-02T15:02:01;7.28;;;2.38;;
61036;SDS011;57313;47.040;15.498;2022-08-02T15:04:30;6.75;;;2.58;;
61036;SDS011;57313;47.040;15.498;2022-08-02T15:07:08;7.53;;;2.65;;
61036;SDS011;57313;47.040;15.498;2022-08-02T15:09:35;6.60;;;2.60;;